CMB6 weather

Lake Muskoka East (Milford Bay) Seaplane Base
Milford Bay, Ontario, Canada

Public forecast

Using degrees Celsius for public forecast. Weather courtesy of forecast.io.

METAR (pilot weather report)

Closest report is Muskoka Airport, 9.6 nm (17.8 km) SE. Retrieved 2019/05/23 10:00 UTC (13 minutes ago):

CYQA 231000Z AUTO 15007KT 100V160 9SM BKN190 BKN210 10/06 A2996 RMK SLP151

TAF (pilot weather forecast)

Forecast is more than 12 hours old.

Closest forecast is Muskoka Airport, 9.6 nm (17.8 km) SE. Retrieved 2019/05/22 20:00 UTC (14 hours ago):

TAF CYQA 221938Z 2220/2302 13010G20KT P6SM OVC090 TEMPO 2220/2222 P6SM -SHRA FM222200 13008G18KT P6SM OVC070 TEMPO 2222/2301 P6SM -SHRA OVC050 FM230100 13008KT P6SM OVC030 RMK FCST BASED ON AUTO OBS. NXT FCST WILL BE ISSUED AT 231145Z